createdAt,value
2018-07-19T00:00:39.570Z,3.53
2018-07-19T00:03:10.677Z,3.85
2018-07-19T00:05:41.904Z,4.47
2018-07-19T00:08:12.833Z,4.70
2018-07-19T00:10:43.478Z,4.10
2018-07-19T00:13:14.524Z,4.23
2018-07-19T00:15:44.988Z,4.23
2018-07-19T00:18:14.992Z,3.40
2018-07-19T00:20:45.143Z,3.77
2018-07-19T00:23:15.415Z,3.80
2018-07-19T00:25:45.489Z,3.77
2018-07-19T00:28:15.546Z,3.60
2018-07-19T00:30:45.526Z,3.77
2018-07-19T00:33:16.124Z,4.00
2018-07-19T00:35:46.241Z,4.00
2018-07-19T00:38:16.464Z,3.40
2018-07-19T00:40:46.644Z,3.50
2018-07-19T00:43:16.757Z,3.63
2018-07-19T00:45:46.960Z,3.43
2018-07-19T00:48:17.388Z,3.92
2018-07-19T00:50:47.552Z,3.73
2018-07-19T00:53:18.053Z,3.90
2018-07-19T00:55:47.990Z,3.35
2018-07-19T00:58:18.183Z,3.57
2018-07-19T01:00:48.286Z,3.30
2018-07-19T01:03:18.483Z,3.60
2018-07-19T01:05:48.519Z,3.63
2018-07-19T01:08:18.963Z,3.23
2018-07-19T01:10:49.080Z,3.30
2018-07-19T01:13:19.408Z,3.47
2018-07-19T01:15:49.578Z,3.40
2018-07-19T01:18:19.673Z,3.30
2018-07-19T01:20:49.874Z,3.43
2018-07-19T01:23:19.881Z,3.60
2018-07-19T01:25:49.773Z,3.53
2018-07-19T01:28:19.959Z,3.27
2018-07-19T01:30:50.123Z,3.83
2018-07-19T01:33:20.308Z,3.17
2018-07-19T01:35:51.354Z,3.40
2018-07-19T01:38:22.140Z,3.55
2018-07-19T01:40:53.100Z,3.80
2018-07-19T01:43:23.714Z,3.37
2018-07-19T01:54:05.238Z,3.67
2018-07-19T01:56:35.329Z,3.25
2018-07-19T01:59:05.452Z,3.30
2018-07-19T02:01:35.872Z,2.90
2018-07-19T02:04:05.707Z,3.10
2018-07-19T02:06:36.375Z,3.50
2018-07-19T02:09:07.302Z,3.50
2018-07-19T02:11:37.082Z,3.13
2018-07-19T02:14:07.296Z,3.00
2018-07-19T02:16:38.299Z,3.20
2018-07-19T02:19:09.063Z,3.60
2018-07-19T02:24:05.063Z,3.43
2018-07-19T02:26:35.223Z,8.03
2018-07-19T02:29:06.178Z,6.97
2018-07-19T02:31:36.479Z,6.87
2018-07-19T02:34:06.539Z,5.23
2018-07-19T02:36:36.653Z,4.80
2018-07-19T02:39:10.958Z,5.80
2018-07-19T02:41:41.373Z,4.30
2018-07-19T02:44:13.018Z,4.70
2018-07-19T02:46:44.175Z,4.50
2018-07-19T02:49:14.529Z,3.27
2018-07-19T02:51:44.743Z,3.70
2018-07-19T02:54:14.838Z,4.13
2018-07-19T02:56:44.900Z,3.87
2018-07-19T02:59:15.149Z,3.98
2018-07-19T03:01:45.378Z,4.80
2018-07-19T03:04:15.462Z,4.03
2018-07-19T03:06:45.722Z,4.80
2018-07-19T03:09:15.928Z,3.80
2018-07-19T03:11:46.044Z,3.20
2018-07-19T03:14:16.045Z,4.12
2018-07-19T03:16:46.036Z,4.67
2018-07-19T03:19:15.997Z,4.50
2018-07-19T03:21:45.975Z,3.80
2018-07-19T03:24:16.113Z,4.63
2018-07-19T03:26:46.414Z,4.30
2018-07-19T03:29:16.496Z,4.30
2018-07-19T03:31:46.627Z,4.35
2018-07-19T03:34:17.020Z,4.47
2018-07-19T03:36:46.908Z,4.10
2018-07-19T03:39:17.340Z,4.17
2018-07-19T03:41:47.467Z,4.50
2018-07-19T03:44:17.752Z,4.30
2018-07-19T03:46:47.817Z,3.83
2018-07-19T03:49:18.113Z,4.53
2018-07-19T03:51:48.244Z,5.08
2018-07-19T03:54:18.548Z,7.30
2018-07-19T03:56:48.704Z,4.70
2018-07-19T03:59:18.870Z,4.10
2018-07-19T04:01:49.052Z,4.50
2018-07-19T04:04:19.445Z,4.23
2018-07-19T04:06:49.548Z,4.43
2018-07-19T04:09:19.955Z,4.60
2018-07-19T04:11:50.100Z,4.90
2018-07-19T04:14:20.170Z,5.77
2018-07-19T04:16:50.181Z,4.67
2018-07-19T04:19:20.515Z,3.95
2018-07-19T04:21:50.649Z,4.72
2018-07-19T04:24:20.783Z,4.45
2018-07-19T04:26:50.723Z,5.70
2018-07-19T04:29:23.173Z,8.83
2018-07-19T04:31:53.313Z,22.07
2018-07-19T04:34:23.497Z,11.28
2018-07-19T04:36:53.769Z,9.53
2018-07-19T04:39:23.198Z,8.63
2018-07-19T04:41:53.123Z,9.15
2018-07-19T04:44:23.444Z,9.03
2018-07-19T04:46:59.193Z,9.37
2018-07-19T04:49:31.470Z,7.97
2018-07-19T04:52:02.349Z,8.93
2018-07-19T04:54:32.905Z,7.72
2018-07-19T04:57:02.957Z,7.60
2018-07-19T04:59:33.155Z,5.40
2018-07-19T05:02:02.935Z,6.55
2018-07-19T05:04:32.672Z,8.17
2018-07-19T05:07:02.858Z,7.30
2018-07-19T05:09:33.067Z,6.90
2018-07-19T05:12:03.355Z,8.03
2018-07-19T05:14:33.544Z,6.28
2018-07-19T05:17:03.657Z,7.35
2018-07-19T05:19:33.941Z,6.95
2018-07-19T05:22:04.133Z,8.77
2018-07-19T05:24:34.280Z,7.13
2018-07-19T05:27:04.509Z,7.20
2018-07-19T05:29:34.633Z,7.57
2018-07-19T05:32:05.368Z,6.45
2018-07-19T05:34:36.214Z,5.45
2018-07-19T05:37:07.304Z,5.17
2018-07-19T05:39:38.609Z,4.90
2018-07-19T05:42:09.949Z,5.20
2018-07-19T05:44:40.975Z,5.60
2018-07-19T05:47:11.948Z,4.93
2018-07-19T05:49:43.119Z,4.80
2018-07-19T05:52:14.359Z,4.97
2018-07-19T05:54:45.628Z,4.47
2018-07-19T05:57:16.243Z,4.90
2018-07-19T05:59:46.800Z,4.80
2018-07-19T06:02:16.994Z,4.93
2018-07-19T06:04:47.154Z,5.10
2018-07-19T06:07:17.733Z,4.27
2018-07-19T06:09:50.734Z,4.77
2018-07-19T06:12:21.003Z,4.80
2018-07-19T06:14:50.975Z,4.07
2018-07-19T06:17:21.138Z,4.50
2018-07-19T06:19:51.119Z,4.60
2018-07-19T06:22:21.443Z,3.73
2018-07-19T06:24:51.618Z,4.10
2018-07-19T06:27:22.193Z,4.00
2018-07-19T06:29:52.130Z,3.93
2018-07-19T06:32:22.200Z,4.20
2018-07-19T06:34:52.431Z,4.17
2018-07-19T06:37:22.568Z,4.37
2018-07-19T06:39:52.842Z,4.27
2018-07-19T06:42:23.063Z,3.77
2018-07-19T06:44:53.233Z,4.13
2018-07-19T06:47:23.318Z,3.77
2018-07-19T06:49:53.548Z,4.13
2018-07-19T06:52:23.904Z,3.83
2018-07-19T06:54:54.143Z,4.20
2018-07-19T06:57:24.263Z,3.67
2018-07-19T06:59:54.422Z,4.10
2018-07-19T07:02:24.669Z,4.37
2018-07-19T07:04:54.894Z,3.90
2018-07-19T07:07:25.048Z,4.80
2018-07-19T07:09:55.127Z,4.80
2018-07-19T07:12:25.418Z,4.85
2018-07-19T07:14:55.514Z,4.30
2018-07-19T07:17:25.486Z,4.40
2018-07-19T07:19:55.563Z,7.90
2018-07-19T07:22:25.748Z,8.70
2018-07-19T07:24:56.384Z,6.90
2018-07-19T07:27:26.863Z,4.55
2018-07-19T07:29:58.048Z,4.93
2018-07-19T07:32:29.484Z,4.10
2018-07-19T07:35:00.710Z,4.33
2018-07-19T07:37:31.422Z,4.63
2018-07-19T07:40:02.544Z,3.90
2018-07-19T07:42:33.405Z,4.28
2018-07-19T07:45:03.674Z,4.13
2018-07-19T07:47:33.923Z,6.33
2018-07-19T07:50:04.118Z,5.40
2018-07-19T07:52:34.456Z,5.10
2018-07-19T07:55:04.963Z,4.90
2018-07-19T07:57:35.104Z,11.30
2018-07-19T08:00:05.328Z,14.33
2018-07-19T08:02:35.333Z,5.63
2018-07-19T08:05:05.613Z,3.33
2018-07-19T08:07:36.063Z,3.23
2018-07-19T08:10:06.814Z,3.00
2018-07-19T08:12:37.000Z,2.90
2018-07-19T08:15:07.145Z,2.83
2018-07-19T08:17:37.197Z,3.45
2018-07-19T08:20:07.630Z,3.07
2018-07-19T08:22:37.828Z,3.30
2018-07-19T08:25:07.863Z,3.00
2018-07-19T08:27:38.284Z,6.67
2018-07-19T08:30:08.433Z,11.63
2018-07-19T08:32:38.417Z,6.67
2018-07-19T08:35:08.763Z,3.60
2018-07-19T08:37:39.408Z,2.85
2018-07-19T08:40:09.908Z,3.30
2018-07-19T08:42:40.425Z,2.27
2018-07-19T08:45:10.748Z,2.40
2018-07-19T08:47:41.340Z,2.92
2018-07-19T08:50:11.549Z,2.65
2018-07-19T08:52:41.718Z,2.63
2018-07-19T08:55:12.186Z,2.90
2018-07-19T08:57:42.436Z,2.40
2018-07-19T09:00:12.605Z,3.27
2018-07-19T09:02:42.746Z,2.50
2018-07-19T09:05:12.864Z,2.80
2018-07-19T09:07:43.909Z,2.30
2018-07-19T09:10:14.976Z,2.90
2018-07-19T09:12:45.439Z,2.83
2018-07-19T09:15:15.779Z,2.90
2018-07-19T09:17:45.846Z,3.73
2018-07-19T09:20:15.944Z,15.27
2018-07-19T09:22:46.184Z,5.00
2018-07-19T09:25:16.623Z,3.20
2018-07-19T09:27:46.711Z,2.97
2018-07-19T09:30:16.931Z,2.53
2018-07-19T09:32:47.549Z,3.10
2018-07-19T09:35:18.241Z,2.50
2018-07-19T09:37:48.645Z,2.77
2018-07-19T09:40:18.930Z,3.00
2018-07-19T09:42:49.392Z,2.87
2018-07-19T09:45:19.939Z,3.00
2018-07-19T09:47:50.008Z,3.07
2018-07-19T09:50:20.489Z,2.40
2018-07-19T09:52:50.483Z,2.50
2018-07-19T09:55:20.923Z,3.00
2018-07-19T09:57:50.970Z,2.95
2018-07-19T10:00:26.291Z,2.80
2018-07-19T10:02:56.238Z,3.27
2018-07-19T10:05:26.413Z,3.40
2018-07-19T10:07:56.291Z,3.12
2018-07-19T10:10:26.804Z,3.12
2018-07-19T10:12:56.905Z,3.05
2018-07-19T10:15:27.350Z,3.03
2018-07-19T10:17:57.660Z,2.90
2018-07-19T10:20:27.806Z,7.70
2018-07-19T10:23:00.864Z,4.33
2018-07-19T10:25:30.875Z,2.98
2018-07-19T10:28:01.479Z,2.75
2018-07-19T10:30:31.334Z,2.77
2018-07-19T10:33:01.544Z,2.72
2018-07-19T10:35:31.764Z,2.60
2018-07-19T10:38:01.826Z,3.13
2018-07-19T10:40:31.833Z,2.60
2018-07-19T10:43:02.322Z,3.00
2018-07-19T10:45:32.404Z,2.60
2018-07-19T10:48:02.706Z,2.40
2018-07-19T10:50:32.450Z,2.67
2018-07-19T10:53:03.240Z,2.85
2018-07-19T10:55:34.589Z,2.60
2018-07-19T10:58:05.354Z,2.87
2018-07-19T11:04:06.314Z,2.60
2018-07-19T11:06:36.444Z,2.83
2018-07-19T11:09:09.369Z,3.27
2018-07-19T11:11:39.781Z,3.90
2018-07-19T11:14:10.001Z,3.10
2018-07-19T11:16:40.323Z,2.20
2018-07-19T11:19:10.344Z,2.70
2018-07-19T11:21:40.792Z,2.80
2018-07-19T11:24:10.967Z,2.80
2018-07-19T11:26:41.115Z,2.70
2018-07-19T11:29:11.371Z,2.70
2018-07-19T11:31:41.473Z,2.83
2018-07-19T11:34:10.995Z,2.47
2018-07-19T11:36:41.055Z,2.30
2018-07-19T11:39:11.065Z,2.60
2018-07-19T11:41:42.162Z,2.62
2018-07-19T11:44:12.371Z,2.87
2018-07-19T11:46:42.541Z,2.50
2018-07-19T11:49:12.687Z,2.53
2018-07-19T11:51:42.956Z,2.85
2018-07-19T11:54:13.184Z,2.55
2018-07-19T11:56:43.323Z,2.67
2018-07-19T11:59:14.013Z,2.87
2018-07-19T12:01:44.240Z,2.60
2018-07-19T12:04:14.925Z,2.73
2018-07-19T12:06:45.411Z,2.30
2018-07-19T12:09:15.540Z,2.87
2018-07-19T12:11:46.329Z,3.00
2018-07-19T12:14:16.509Z,2.90
2018-07-19T12:16:46.992Z,3.00
2018-07-19T12:19:17.366Z,4.07
2018-07-19T12:21:47.244Z,2.80
2018-07-19T12:24:17.322Z,2.43
2018-07-19T12:26:47.655Z,2.70
2018-07-19T12:29:17.261Z,2.67
2018-07-19T12:31:47.297Z,3.30
2018-07-19T12:34:17.399Z,2.90
2018-07-19T12:36:47.735Z,3.40
2018-07-19T12:39:17.805Z,2.87
2018-07-19T12:41:47.849Z,2.80
2018-07-19T12:44:17.905Z,2.53
2018-07-19T12:46:48.179Z,2.57
2018-07-19T12:49:18.860Z,2.60
2018-07-19T12:51:49.056Z,2.33
2018-07-19T12:54:19.609Z,3.03
2018-07-19T12:56:50.290Z,2.70
2018-07-19T12:59:20.477Z,2.83
2018-07-19T13:01:50.836Z,2.60
2018-07-19T13:04:21.120Z,2.65
2018-07-19T13:06:51.640Z,2.60
2018-07-19T13:09:21.895Z,2.30
2018-07-19T13:11:52.173Z,2.60
2018-07-19T13:14:23.811Z,2.83
2018-07-19T13:16:54.533Z,3.70
2018-07-19T13:19:24.685Z,2.50
2018-07-19T13:21:55.103Z,3.87
2018-07-19T13:24:25.898Z,3.17
2018-07-19T13:26:56.119Z,2.73
2018-07-19T13:29:26.029Z,2.97
2018-07-19T13:31:56.469Z,3.70
2018-07-19T13:34:26.823Z,3.23
2018-07-19T13:36:56.987Z,2.90
2018-07-19T13:39:27.251Z,2.63
2018-07-19T13:41:57.598Z,2.40
2018-07-19T13:44:27.645Z,2.70
2018-07-19T13:46:57.751Z,3.17
2018-07-19T13:49:28.961Z,2.90
2018-07-19T13:51:59.190Z,2.77
2018-07-19T13:54:46.749Z,2.90
2018-07-19T13:57:17.029Z,2.50
2018-07-19T13:59:47.366Z,2.90
2018-07-19T14:02:17.408Z,2.60
2018-07-19T14:04:47.632Z,2.50
2018-07-19T14:07:17.825Z,2.53
2018-07-19T14:09:48.066Z,2.90
2018-07-19T14:12:18.125Z,2.70
2018-07-19T14:14:48.315Z,2.70
2018-07-19T14:17:18.521Z,2.50
2018-07-19T14:19:48.864Z,2.80
2018-07-19T14:22:19.215Z,3.30
2018-07-19T14:24:49.369Z,2.53
2018-07-19T14:27:19.514Z,2.53
2018-07-19T14:29:49.594Z,2.73
2018-07-19T14:32:19.931Z,2.95
2018-07-19T14:34:50.236Z,2.85
2018-07-19T14:37:20.255Z,2.60
2018-07-19T14:39:50.645Z,2.70
2018-07-19T14:42:20.873Z,2.90
2018-07-19T14:44:50.805Z,2.50
2018-07-19T14:47:21.017Z,2.80
2018-07-19T14:49:51.026Z,2.70
2018-07-19T14:52:21.532Z,2.63
2018-07-19T14:54:52.475Z,3.13
2018-07-19T14:57:22.923Z,3.00
2018-07-19T14:59:52.932Z,2.50
2018-07-19T15:02:23.291Z,2.23
2018-07-19T15:04:53.409Z,2.37
2018-07-19T15:07:23.702Z,2.27
2018-07-19T15:09:53.884Z,2.87
2018-07-19T15:12:24.381Z,2.60
2018-07-19T15:14:54.635Z,2.70
2018-07-19T15:17:24.809Z,2.63
2018-07-19T15:19:55.094Z,3.00
2018-07-19T15:22:25.746Z,2.60
2018-07-19T15:24:55.887Z,2.83
2018-07-19T15:27:26.065Z,3.90
2018-07-19T15:29:56.241Z,3.73
2018-07-19T15:32:26.686Z,3.98
2018-07-19T15:34:56.735Z,3.12
2018-07-19T15:37:26.886Z,4.47
2018-07-19T15:39:56.925Z,3.77
2018-07-19T15:42:27.344Z,3.45
2018-07-19T15:44:57.422Z,3.50
2018-07-19T15:47:27.575Z,3.70
2018-07-19T15:49:57.919Z,4.33
2018-07-19T15:52:28.106Z,5.13
2018-07-19T15:54:58.126Z,3.65
2018-07-19T15:57:28.416Z,4.03
2018-07-19T15:59:58.470Z,3.50
2018-07-19T16:02:28.667Z,3.10
2018-07-19T16:04:58.939Z,4.85
2018-07-19T16:07:29.307Z,3.90
2018-07-19T16:09:59.389Z,3.27
2018-07-19T16:12:29.265Z,3.17
2018-07-19T16:14:59.211Z,3.60
2018-07-19T16:17:29.229Z,2.80
2018-07-19T16:20:00.215Z,3.00
2018-07-19T16:22:31.301Z,2.80
2018-07-19T16:25:02.137Z,3.43
2018-07-19T16:27:32.289Z,2.97
2018-07-19T16:30:02.617Z,3.27
2018-07-19T16:32:32.636Z,2.90
2018-07-19T16:35:03.243Z,2.73
2018-07-19T16:37:33.464Z,2.87
2018-07-19T16:40:03.646Z,2.90
2018-07-19T16:42:34.052Z,3.00
2018-07-19T16:45:04.525Z,4.10
2018-07-19T16:47:34.720Z,3.20
2018-07-19T16:50:06.605Z,4.20
2018-07-19T16:52:36.692Z,3.17
2018-07-19T16:55:06.806Z,3.30
2018-07-19T16:57:37.011Z,2.63
2018-07-19T17:00:07.890Z,3.17
2018-07-19T17:02:38.381Z,3.27
2018-07-19T17:05:08.752Z,3.00
2018-07-19T17:07:38.949Z,2.57
2018-07-19T17:10:09.889Z,2.80
2018-07-19T17:12:40.051Z,2.77
2018-07-19T17:15:10.429Z,3.10
2018-07-19T17:17:40.756Z,3.00
2018-07-19T17:20:11.217Z,2.52
2018-07-19T17:22:41.411Z,2.60
2018-07-19T17:25:11.606Z,3.67
2018-07-19T17:27:41.625Z,3.20
2018-07-19T17:30:11.880Z,3.07
2018-07-19T17:32:42.004Z,3.20
2018-07-19T17:35:12.165Z,2.90
2018-07-19T17:37:42.303Z,3.30
2018-07-19T17:40:12.785Z,3.30
2018-07-19T17:42:43.318Z,2.87
2018-07-19T17:45:14.209Z,2.70
2018-07-19T17:47:44.921Z,2.60
2018-07-19T17:50:15.019Z,3.33
2018-07-19T17:52:45.370Z,2.72
2018-07-19T17:55:15.516Z,2.90
2018-07-19T17:57:45.813Z,3.43
2018-07-19T18:00:15.900Z,3.20
2018-07-19T18:02:46.006Z,2.50
2018-07-19T18:05:16.158Z,2.57
2018-07-19T18:07:47.268Z,3.98
2018-07-19T18:10:17.799Z,2.50
2018-07-19T18:12:48.754Z,2.97
2018-07-19T18:24:06.749Z,2.90
2018-07-19T18:26:37.130Z,3.00
2018-07-19T18:29:08.156Z,3.42
2018-07-19T18:31:38.226Z,3.58
2018-07-19T18:34:08.338Z,3.40
2018-07-19T18:36:38.581Z,3.15
2018-07-19T18:39:11.902Z,3.67
2018-07-19T18:41:42.173Z,3.67
2018-07-19T18:44:12.645Z,3.40
2018-07-19T18:46:43.203Z,3.80
2018-07-19T18:49:13.582Z,5.97
2018-07-19T18:51:43.824Z,11.25
2018-07-19T18:54:13.915Z,16.05
2018-07-19T18:56:44.209Z,4.67
2018-07-19T18:59:14.320Z,3.60
2018-07-19T19:01:44.562Z,2.97
2018-07-19T19:04:14.690Z,3.27
2018-07-19T19:06:44.928Z,3.53
2018-07-19T19:09:14.980Z,3.23
2018-07-19T19:11:45.283Z,3.53
2018-07-19T19:14:15.476Z,3.20
2018-07-19T19:16:46.691Z,3.27
2018-07-19T19:19:17.277Z,3.45
2018-07-19T19:21:48.785Z,3.10
2018-07-19T19:24:19.931Z,3.17
2018-07-19T19:26:51.193Z,3.20
2018-07-19T19:29:21.856Z,3.30
2018-07-19T19:31:52.912Z,3.15
2018-07-19T19:34:23.788Z,4.58
2018-07-19T19:36:55.206Z,3.97
2018-07-19T19:39:25.960Z,16.85
2018-07-19T19:41:57.294Z,13.97
2018-07-19T19:44:28.220Z,6.75
2018-07-19T19:46:59.501Z,4.87
2018-07-19T19:49:30.681Z,3.70
2018-07-19T19:52:01.582Z,3.85
2018-07-19T19:54:32.470Z,4.17
2018-07-19T19:57:02.502Z,3.97
2018-07-19T19:59:32.800Z,4.20
2018-07-19T20:02:02.969Z,4.43
2018-07-19T20:04:33.250Z,4.70
2018-07-19T20:07:03.338Z,5.27
2018-07-19T20:09:33.445Z,4.27
2018-07-19T20:12:03.936Z,4.03
2018-07-19T20:14:34.625Z,3.77
2018-07-19T20:17:04.846Z,4.50
2018-07-19T20:19:35.065Z,4.03
2018-07-19T20:22:05.634Z,4.50
2018-07-19T20:24:35.822Z,3.93
2018-07-19T20:27:06.025Z,4.53
2018-07-19T20:29:36.263Z,3.80
2018-07-19T20:32:06.594Z,5.70
2018-07-19T20:34:37.216Z,6.27
2018-07-19T20:37:07.564Z,8.33
2018-07-19T20:39:37.944Z,5.97
2018-07-19T20:42:09.311Z,4.63
2018-07-19T20:44:39.510Z,4.55
2018-07-19T20:47:09.798Z,4.37
2018-07-19T20:49:40.196Z,4.50
2018-07-19T20:52:10.479Z,4.55
2018-07-19T20:54:40.854Z,3.97
2018-07-19T20:57:11.187Z,4.57
2018-07-19T20:59:41.392Z,4.40
2018-07-19T21:02:11.396Z,4.65
2018-07-19T21:04:41.418Z,4.03
2018-07-19T21:07:11.749Z,4.37
2018-07-19T21:09:41.845Z,4.60
2018-07-19T21:12:12.034Z,6.43
2018-07-19T21:14:42.137Z,18.23
2018-07-19T21:17:12.421Z,9.95
2018-07-19T21:19:42.525Z,5.10
2018-07-19T21:22:12.522Z,5.07
2018-07-19T21:24:42.957Z,4.43
2018-07-19T21:27:13.106Z,5.47
2018-07-19T21:29:43.525Z,4.65
2018-07-19T21:32:14.660Z,4.80
2018-07-19T21:34:45.836Z,5.00
2018-07-19T21:37:16.766Z,5.00
2018-07-19T21:39:47.786Z,4.80
2018-07-19T21:42:18.615Z,4.83
2018-07-19T21:44:49.689Z,4.93
2018-07-19T21:47:19.751Z,4.60
2018-07-19T21:49:49.885Z,4.37
2018-07-19T21:52:20.150Z,4.70
2018-07-19T21:54:50.331Z,4.57
2018-07-19T21:57:20.433Z,4.70
2018-07-19T21:59:50.578Z,4.90
2018-07-19T22:02:20.780Z,4.93
2018-07-19T22:04:50.960Z,4.93
2018-07-19T22:07:20.641Z,5.00
2018-07-19T22:09:50.871Z,5.27
2018-07-19T22:12:21.130Z,5.07
2018-07-19T22:21:03.861Z,4.20
2018-07-19T22:23:34.085Z,3.98
2018-07-19T22:26:04.365Z,3.80
2018-07-19T22:28:34.474Z,5.72
2018-07-19T22:31:04.899Z,13.63
2018-07-19T22:33:35.024Z,18.82
2018-07-19T22:36:05.452Z,7.27
2018-07-19T22:38:35.469Z,6.10
2018-07-19T22:41:05.606Z,6.00
2018-07-19T22:43:35.748Z,7.13
2018-07-19T22:46:06.274Z,5.05
2018-07-19T22:48:36.081Z,5.03
2018-07-19T22:51:06.351Z,5.80
2018-07-19T22:53:36.584Z,6.60
2018-07-19T22:56:06.821Z,5.27
2018-07-19T22:58:36.779Z,5.70
2018-07-19T23:01:07.153Z,5.20
2018-07-19T23:03:37.395Z,4.80
2018-07-19T23:06:08.482Z,5.42
2018-07-19T23:08:39.605Z,5.50
2018-07-19T23:11:10.736Z,4.92
2018-07-19T23:13:41.800Z,5.10
2018-07-19T23:16:12.957Z,5.03
2018-07-19T23:18:44.786Z,5.83
2018-07-19T23:21:15.345Z,5.23
2018-07-19T23:23:46.562Z,5.05
2018-07-19T23:26:16.805Z,5.03
2018-07-19T23:28:47.125Z,5.00
2018-07-19T23:31:17.290Z,4.57
2018-07-19T23:33:47.440Z,3.90
2018-07-19T23:36:20.704Z,8.73
2018-07-19T23:38:59.021Z,12.07
2018-07-19T23:41:37.745Z,10.05
2018-07-19T23:44:12.491Z,6.13
2018-07-19T23:46:48.127Z,11.40
2018-07-19T23:49:18.048Z,13.37
2018-07-19T23:51:48.125Z,12.97
2018-07-19T23:54:18.236Z,9.90
2018-07-19T23:56:48.559Z,5.40
2018-07-19T23:59:18.750Z,6.67
